sensor_id;sensor_type;location;lat;lon;timestamp;temperature;humidity
18189;DHT22;9219;50.396;8.546;2023-10-31T00:01:45;13.10;99.90
18189;DHT22;9219;50.396;8.546;2023-10-31T00:04:12;13.10;99.90
18189;DHT22;9219;50.396;8.546;2023-10-31T00:06:40;13.00;99.90
18189;DHT22;9219;50.396;8.546;2023-10-31T00:09:07;12.80;99.90
18189;DHT22;9219;50.396;8.546;2023-10-31T00:15:09;12.90;99.90
18189;DHT22;9219;50.396;8.546;2023-10-31T00:17:36;13.00;99.90
18189;DHT22;9219;50.396;8.546;2023-10-31T00:20:04;12.30;99.90
18189;DHT22;9219;50.396;8.546;2023-10-31T00:22:31;12.20;99.90
18189;DHT22;9219;50.396;8.546;2023-10-31T00:24:58;12.10;99.90
18189;DHT22;9219;50.396;8.546;2023-10-31T00:27:25;12.00;99.90
18189;DHT22;9219;50.396;8.546;2023-10-31T00:29:54;12.00;99.90
18189;DHT22;9219;50.396;8.546;2023-10-31T00:35:03;12.10;99.90
18189;DHT22;9219;50.396;8.546;2023-10-31T00:37:30;12.00;99.90
18189;DHT22;9219;50.396;8.546;2023-10-31T00:39:58;11.80;99.90
18189;DHT22;9219;50.396;8.546;2023-10-31T00:42:25;11.70;99.90
18189;DHT22;9219;50.396;8.546;2023-10-31T00:44:52;11.80;99.90
18189;DHT22;9219;50.396;8.546;2023-10-31T00:47:19;11.70;99.90
18189;DHT22;9219;50.396;8.546;2023-10-31T00:49:46;11.80;99.90
18189;DHT22;9219;50.396;8.546;2023-10-31T00:52:19;11.60;99.90
18189;DHT22;9219;50.396;8.546;2023-10-31T00:58:29;11.60;99.90
18189;DHT22;9219;50.396;8.546;2023-10-31T01:00:57;11.50;99.90
18189;DHT22;9219;50.396;8.546;2023-10-31T01:03:24;11.30;99.90
18189;DHT22;9219;50.396;8.546;2023-10-31T01:05:54;11.50;99.90
18189;DHT22;9219;50.396;8.546;2023-10-31T01:08:22;11.40;99.90
18189;DHT22;9219;50.396;8.546;2023-10-31T01:10:50;11.30;99.90
18189;DHT22;9219;50.396;8.546;2023-10-31T01:13:18;11.30;99.90
18189;DHT22;9219;50.396;8.546;2023-10-31T01:15:46;11.40;99.90
18189;DHT22;9219;50.396;8.546;2023-10-31T01:18:26;11.50;99.90
18189;DHT22;9219;50.396;8.546;2023-10-31T01:20:54;11.40;99.90
18189;DHT22;9219;50.396;8.546;2023-10-31T01:23:21;11.50;99.90
18189;DHT22;9219;50.396;8.546;2023-10-31T01:25:55;11.50;99.90
18189;DHT22;9219;50.396;8.546;2023-10-31T01:28:22;11.50;99.90
18189;DHT22;9219;50.396;8.546;2023-10-31T01:30:49;11.50;99.90
18189;DHT22;9219;50.396;8.546;2023-10-31T01:33:17;11.30;99.90
18189;DHT22;9219;50.396;8.546;2023-10-31T01:36:13;11.50;99.90
18189;DHT22;9219;50.396;8.546;2023-10-31T01:39:14;11.40;99.90
18189;DHT22;9219;50.396;8.546;2023-10-31T01:41:41;11.00;99.90
18189;DHT22;9219;50.396;8.546;2023-10-31T01:44:08;10.90;99.90
18189;DHT22;9219;50.396;8.546;2023-10-31T01:46:36;11.10;99.90
18189;DHT22;9219;50.396;8.546;2023-10-31T01:49:04;11.00;99.90
18189;DHT22;9219;50.396;8.546;2023-10-31T01:51:31;10.90;99.90
18189;DHT22;9219;50.396;8.546;2023-10-31T01:53:58;11.00;99.90
18189;DHT22;9219;50.396;8.546;2023-10-31T01:56:28;11.00;99.90
18189;DHT22;9219;50.396;8.546;2023-10-31T01:59:56;11.00;99.90
18189;DHT22;9219;50.396;8.546;2023-10-31T02:02:23;11.30;99.90
18189;DHT22;9219;50.396;8.546;2023-10-31T02:04:53;11.20;99.90
18189;DHT22;9219;50.396;8.546;2023-10-31T02:07:21;11.30;99.90
18189;DHT22;9219;50.396;8.546;2023-10-31T02:09:48;11.20;99.90
18189;DHT22;9219;50.396;8.546;2023-10-31T02:12:33;11.30;99.90
18189;DHT22;9219;50.396;8.546;2023-10-31T02:15:03;11.30;99.90
18189;DHT22;9219;50.396;8.546;2023-10-31T02:22:35;11.20;99.90
18189;DHT22;9219;50.396;8.546;2023-10-31T02:25:02;11.10;99.90
18189;DHT22;9219;50.396;8.546;2023-10-31T02:27:29;11.20;99.90
18189;DHT22;9219;50.396;8.546;2023-10-31T02:29:57;11.20;99.90
18189;DHT22;9219;50.396;8.546;2023-10-31T02:32:24;11.20;99.90
18189;DHT22;9219;50.396;8.546;2023-10-31T02:34:53;11.30;99.90
18189;DHT22;9219;50.396;8.546;2023-10-31T02:37:21;11.10;99.90
18189;DHT22;9219;50.396;8.546;2023-10-31T02:39:49;11.00;99.90
18189;DHT22;9219;50.396;8.546;2023-10-31T02:47:20;11.30;99.90
18189;DHT22;9219;50.396;8.546;2023-10-31T02:49:48;11.20;99.90
18189;DHT22;9219;50.396;8.546;2023-10-31T02:52:17;11.40;99.90
18189;DHT22;9219;50.396;8.546;2023-10-31T02:54:44;10.90;99.90
18189;DHT22;9219;50.396;8.546;2023-10-31T02:57:11;10.50;99.90
18189;DHT22;9219;50.396;8.546;2023-10-31T02:59:38;10.60;99.90
18189;DHT22;9219;50.396;8.546;2023-10-31T03:02:05;10.70;99.90
18189;DHT22;9219;50.396;8.546;2023-10-31T03:04:34;10.60;99.90
18189;DHT22;9219;50.396;8.546;2023-10-31T03:11:20;10.40;99.90
18189;DHT22;9219;50.396;8.546;2023-10-31T03:13:53;10.80;99.90
18189;DHT22;9219;50.396;8.546;2023-10-31T03:16:23;10.60;99.90
18189;DHT22;9219;50.396;8.546;2023-10-31T03:18:51;10.70;99.90
18189;DHT22;9219;50.396;8.546;2023-10-31T03:21:19;10.70;99.90
18189;DHT22;9219;50.396;8.546;2023-10-31T03:23:48;10.70;99.90
18189;DHT22;9219;50.396;8.546;2023-10-31T03:26:17;10.60;99.90
18189;DHT22;9219;50.396;8.546;2023-10-31T03:28:44;10.70;99.90
18189;DHT22;9219;50.396;8.546;2023-10-31T03:34:00;10.90;99.90
18189;DHT22;9219;50.396;8.546;2023-10-31T03:36:27;11.00;99.90
18189;DHT22;9219;50.396;8.546;2023-10-31T03:38:54;11.10;99.90
18189;DHT22;9219;50.396;8.546;2023-10-31T03:41:21;11.10;99.90
18189;DHT22;9219;50.396;8.546;2023-10-31T03:43:48;10.90;99.90
18189;DHT22;9219;50.396;8.546;2023-10-31T03:46:16;11.10;99.90
18189;DHT22;9219;50.396;8.546;2023-10-31T03:48:43;11.30;99.90
18189;DHT22;9219;50.396;8.546;2023-10-31T03:51:11;11.20;99.90
18189;DHT22;9219;50.396;8.546;2023-10-31T03:58:44;11.40;99.90
18189;DHT22;9219;50.396;8.546;2023-10-31T04:01:12;11.40;99.90
18189;DHT22;9219;50.396;8.546;2023-10-31T04:03:39;11.40;99.90
18189;DHT22;9219;50.396;8.546;2023-10-31T04:06:06;11.40;99.90
18189;DHT22;9219;50.396;8.546;2023-10-31T04:08:33;11.40;99.90
18189;DHT22;9219;50.396;8.546;2023-10-31T04:11:00;11.40;99.90
18189;DHT22;9219;50.396;8.546;2023-10-31T04:13:27;11.50;99.90
18189;DHT22;9219;50.396;8.546;2023-10-31T04:18:36;11.30;99.90
18189;DHT22;9219;50.396;8.546;2023-10-31T04:21:03;11.40;99.90
18189;DHT22;9219;50.396;8.546;2023-10-31T04:23:30;11.30;99.90
18189;DHT22;9219;50.396;8.546;2023-10-31T04:25:57;11.40;99.90
18189;DHT22;9219;50.396;8.546;2023-10-31T04:28:25;11.40;99.90
18189;DHT22;9219;50.396;8.546;2023-10-31T04:30:52;11.30;99.90
18189;DHT22;9219;50.396;8.546;2023-10-31T04:33:19;11.30;99.90
18189;DHT22;9219;50.396;8.546;2023-10-31T04:35:48;11.10;99.90
18189;DHT22;9219;50.396;8.546;2023-10-31T04:43:20;11.30;99.90
18189;DHT22;9219;50.396;8.546;2023-10-31T04:45:48;11.20;99.90
18189;DHT22;9219;50.396;8.546;2023-10-31T04:48:17;11.10;99.90
18189;DHT22;9219;50.396;8.546;2023-10-31T04:50:45;11.10;99.90
18189;DHT22;9219;50.396;8.546;2023-10-31T04:53:13;11.10;99.90
18189;DHT22;9219;50.396;8.546;2023-10-31T04:55:40;11.10;99.90
18189;DHT22;9219;50.396;8.546;2023-10-31T04:58:07;11.10;99.90
18189;DHT22;9219;50.396;8.546;2023-10-31T05:04:02;11.10;99.90
18189;DHT22;9219;50.396;8.546;2023-10-31T05:06:39;11.20;99.90
18189;DHT22;9219;50.396;8.546;2023-10-31T05:09:06;11.30;99.90
18189;DHT22;9219;50.396;8.546;2023-10-31T05:11:34;11.30;99.90
18189;DHT22;9219;50.396;8.546;2023-10-31T05:14:01;11.40;99.90
18189;DHT22;9219;50.396;8.546;2023-10-31T05:16:28;11.20;99.90
18189;DHT22;9219;50.396;8.546;2023-10-31T05:18:56;11.10;99.90
18189;DHT22;9219;50.396;8.546;2023-10-31T05:28:01;11.40;99.90
18189;DHT22;9219;50.396;8.546;2023-10-31T05:30:29;11.30;99.90
18189;DHT22;9219;50.396;8.546;2023-10-31T05:32:56;11.30;99.90
18189;DHT22;9219;50.396;8.546;2023-10-31T05:35:24;11.30;99.90
18189;DHT22;9219;50.396;8.546;2023-10-31T05:37:52;11.20;99.90
18189;DHT22;9219;50.396;8.546;2023-10-31T05:40:19;11.30;99.90
18189;DHT22;9219;50.396;8.546;2023-10-31T05:42:48;11.30;99.90
18189;DHT22;9219;50.396;8.546;2023-10-31T05:47:56;11.40;99.90
18189;DHT22;9219;50.396;8.546;2023-10-31T05:50:23;11.30;99.90
18189;DHT22;9219;50.396;8.546;2023-10-31T05:52:50;11.10;99.90
18189;DHT22;9219;50.396;8.546;2023-10-31T05:55:18;11.10;99.90
18189;DHT22;9219;50.396;8.546;2023-10-31T05:57:46;11.20;99.90
18189;DHT22;9219;50.396;8.546;2023-10-31T06:00:13;11.20;99.90
18189;DHT22;9219;50.396;8.546;2023-10-31T06:02:41;11.40;99.90
18189;DHT22;9219;50.396;8.546;2023-10-31T06:05:10;11.50;99.90
18189;DHT22;9219;50.396;8.546;2023-10-31T06:10:49;11.60;99.90
18189;DHT22;9219;50.396;8.546;2023-10-31T06:13:16;11.50;99.90
18189;DHT22;9219;50.396;8.546;2023-10-31T06:15:44;11.50;99.90
18189;DHT22;9219;50.396;8.546;2023-10-31T06:18:11;11.40;99.90
18189;DHT22;9219;50.396;8.546;2023-10-31T06:20:39;11.50;99.90
18189;DHT22;9219;50.396;8.546;2023-10-31T06:23:07;11.30;99.90
18189;DHT22;9219;50.396;8.546;2023-10-31T06:25:34;11.30;99.90
18189;DHT22;9219;50.396;8.546;2023-10-31T06:30:42;11.40;99.90
18189;DHT22;9219;50.396;8.546;2023-10-31T06:33:09;11.40;99.90
18189;DHT22;9219;50.396;8.546;2023-10-31T06:35:37;11.40;99.90
18189;DHT22;9219;50.396;8.546;2023-10-31T06:38:06;11.40;99.90
18189;DHT22;9219;50.396;8.546;2023-10-31T06:40:34;11.30;99.90
18189;DHT22;9219;50.396;8.546;2023-10-31T06:43:02;11.50;99.90
18189;DHT22;9219;50.396;8.546;2023-10-31T06:45:29;11.60;99.90
18189;DHT22;9219;50.396;8.546;2023-10-31T06:47:57;11.60;99.90
18189;DHT22;9219;50.396;8.546;2023-10-31T06:55:30;11.60;99.90
18189;DHT22;9219;50.396;8.546;2023-10-31T06:57:58;11.30;99.90
18189;DHT22;9219;50.396;8.546;2023-10-31T07:00:26;11.30;99.90
18189;DHT22;9219;50.396;8.546;2023-10-31T07:02:54;11.50;99.90
18189;DHT22;9219;50.396;8.546;2023-10-31T07:05:21;11.60;99.90
18189;DHT22;9219;50.396;8.546;2023-10-31T07:07:48;11.60;99.90
18189;DHT22;9219;50.396;8.546;2023-10-31T07:10:16;11.20;99.90
18189;DHT22;9219;50.396;8.546;2023-10-31T07:12:44;11.30;99.90
18189;DHT22;9219;50.396;8.546;2023-10-31T07:20:19;11.20;99.90
18189;DHT22;9219;50.396;8.546;2023-10-31T07:22:46;10.90;99.90
18189;DHT22;9219;50.396;8.546;2023-10-31T07:25:13;11.00;99.90
18189;DHT22;9219;50.396;8.546;2023-10-31T07:27:41;11.00;99.90
18189;DHT22;9219;50.396;8.546;2023-10-31T07:30:09;11.10;99.90
18189;DHT22;9219;50.396;8.546;2023-10-31T07:32:36;11.20;99.90
18189;DHT22;9219;50.396;8.546;2023-10-31T07:35:05;11.50;99.90
18189;DHT22;9219;50.396;8.546;2023-10-31T07:40:51;11.40;99.90
18189;DHT22;9219;50.396;8.546;2023-10-31T07:43:19;11.50;99.90
18189;DHT22;9219;50.396;8.546;2023-10-31T07:45:47;11.50;99.90
18189;DHT22;9219;50.396;8.546;2023-10-31T07:48:14;11.70;99.90
18189;DHT22;9219;50.396;8.546;2023-10-31T07:50:42;11.60;99.90
18189;DHT22;9219;50.396;8.546;2023-10-31T07:53:09;11.60;99.90
18189;DHT22;9219;50.396;8.546;2023-10-31T07:55:36;11.40;99.90
18189;DHT22;9219;50.396;8.546;2023-10-31T07:58:04;11.40;99.90
18189;DHT22;9219;50.396;8.546;2023-10-31T08:00:32;11.20;99.90
18189;DHT22;9219;50.396;8.546;2023-10-31T08:08:31;11.00;99.90
18189;DHT22;9219;50.396;8.546;2023-10-31T08:10:58;10.90;99.90
18189;DHT22;9219;50.396;8.546;2023-10-31T08:13:26;10.90;99.90
18189;DHT22;9219;50.396;8.546;2023-10-31T08:15:53;11.00;99.90
18189;DHT22;9219;50.396;8.546;2023-10-31T08:18:23;11.00;99.90
18189;DHT22;9219;50.396;8.546;2023-10-31T08:20:50;11.00;99.90
18189;DHT22;9219;50.396;8.546;2023-10-31T08:23:17;10.90;99.90
18189;DHT22;9219;50.396;8.546;2023-10-31T08:32:06;11.30;99.90
18189;DHT22;9219;50.396;8.546;2023-10-31T08:34:34;10.90;99.90
18189;DHT22;9219;50.396;8.546;2023-10-31T08:37:01;11.00;99.90
18189;DHT22;9219;50.396;8.546;2023-10-31T08:39:28;11.10;99.90
18189;DHT22;9219;50.396;8.546;2023-10-31T08:41:58;11.00;99.90
18189;DHT22;9219;50.396;8.546;2023-10-31T08:44:25;11.00;99.90
18189;DHT22;9219;50.396;8.546;2023-10-31T08:46:53;11.00;99.90
18189;DHT22;9219;50.396;8.546;2023-10-31T08:56:00;11.30;99.90
18189;DHT22;9219;50.396;8.546;2023-10-31T08:58:28;11.30;99.90
18189;DHT22;9219;50.396;8.546;2023-10-31T09:00:56;10.80;99.90
18189;DHT22;9219;50.396;8.546;2023-10-31T09:03:23;10.80;99.90
18189;DHT22;9219;50.396;8.546;2023-10-31T09:05:51;10.80;99.90
18189;DHT22;9219;50.396;8.546;2023-10-31T09:08:18;11.00;99.90
18189;DHT22;9219;50.396;8.546;2023-10-31T09:10:45;11.00;99.90
18189;DHT22;9219;50.396;8.546;2023-10-31T09:16:52;10.90;99.90
18189;DHT22;9219;50.396;8.546;2023-10-31T09:19:19;11.20;99.90
18189;DHT22;9219;50.396;8.546;2023-10-31T09:21:47;11.40;99.90
18189;DHT22;9219;50.396;8.546;2023-10-31T09:24:14;11.60;99.90
18189;DHT22;9219;50.396;8.546;2023-10-31T09:26:42;11.70;99.90
18189;DHT22;9219;50.396;8.546;2023-10-31T09:29:10;11.70;99.90
18189;DHT22;9219;50.396;8.546;2023-10-31T09:31:55;11.60;99.90
18189;DHT22;9219;50.396;8.546;2023-10-31T09:39:27;11.50;99.90
18189;DHT22;9219;50.396;8.546;2023-10-31T09:41:57;11.60;99.90
18189;DHT22;9219;50.396;8.546;2023-10-31T09:44:25;11.70;99.90
18189;DHT22;9219;50.396;8.546;2023-10-31T09:46:52;11.60;99.90
18189;DHT22;9219;50.396;8.546;2023-10-31T09:49:20;11.50;99.90
18189;DHT22;9219;50.396;8.546;2023-10-31T09:51:47;11.40;99.90
18189;DHT22;9219;50.396;8.546;2023-10-31T09:54:18;11.30;99.90
18189;DHT22;9219;50.396;8.546;2023-10-31T09:56:47;11.10;99.90
18189;DHT22;9219;50.396;8.546;2023-10-31T10:04:21;11.20;99.90
18189;DHT22;9219;50.396;8.546;2023-10-31T10:06:58;11.40;99.90
18189;DHT22;9219;50.396;8.546;2023-10-31T10:09:25;11.20;99.90
18189;DHT22;9219;50.396;8.546;2023-10-31T10:12:17;11.00;99.90
18189;DHT22;9219;50.396;8.546;2023-10-31T10:14:45;11.20;99.90
18189;DHT22;9219;50.396;8.546;2023-10-31T10:17:17;11.30;99.90
18189;DHT22;9219;50.396;8.546;2023-10-31T10:19:45;11.30;99.90
18189;DHT22;9219;50.396;8.546;2023-10-31T10:27:19;11.20;99.90
18189;DHT22;9219;50.396;8.546;2023-10-31T10:29:49;11.50;99.90
18189;DHT22;9219;50.396;8.546;2023-10-31T10:32:19;11.70;99.90
18189;DHT22;9219;50.396;8.546;2023-10-31T10:34:47;11.70;99.90
18189;DHT22;9219;50.396;8.546;2023-10-31T10:37:15;11.80;99.90
18189;DHT22;9219;50.396;8.546;2023-10-31T10:39:47;11.90;99.90
18189;DHT22;9219;50.396;8.546;2023-10-31T10:42:45;12.00;99.90
18189;DHT22;9219;50.396;8.546;2023-10-31T10:48:35;12.00;99.90
18189;DHT22;9219;50.396;8.546;2023-10-31T10:51:29;12.10;99.90
18189;DHT22;9219;50.396;8.546;2023-10-31T10:55:14;12.30;99.90
18189;DHT22;9219;50.396;8.546;2023-10-31T10:58:17;12.50;99.90
18189;DHT22;9219;50.396;8.546;2023-10-31T11:01:22;12.70;99.90
18189;DHT22;9219;50.396;8.546;2023-10-31T11:04:31;12.60;99.90
18189;DHT22;9219;50.396;8.546;2023-10-31T11:07:02;12.60;99.90
18189;DHT22;9219;50.396;8.546;2023-10-31T11:09:43;12.30;99.90
18189;DHT22;9219;50.396;8.546;2023-10-31T11:12:33;12.00;99.90
18189;DHT22;9219;50.396;8.546;2023-10-31T11:18:06;12.10;99.90
18189;DHT22;9219;50.396;8.546;2023-10-31T11:21:31;12.10;99.90
18189;DHT22;9219;50.396;8.546;2023-10-31T11:24:13;12.60;99.90
18189;DHT22;9219;50.396;8.546;2023-10-31T11:27:04;12.50;99.90
18189;DHT22;9219;50.396;8.546;2023-10-31T11:29:33;12.30;99.90
18189;DHT22;9219;50.396;8.546;2023-10-31T11:32:00;11.80;99.90
18189;DHT22;9219;50.396;8.546;2023-10-31T11:35:04;11.90;99.90
18189;DHT22;9219;50.396;8.546;2023-10-31T11:37:35;12.00;99.90
18189;DHT22;9219;50.396;8.546;2023-10-31T11:40:17;12.10;99.90
18189;DHT22;9219;50.396;8.546;2023-10-31T11:45:37;12.50;99.90
18189;DHT22;9219;50.396;8.546;2023-10-31T11:48:08;11.80;99.90
18189;DHT22;9219;50.396;8.546;2023-10-31T11:50:37;11.70;99.90
18189;DHT22;9219;50.396;8.546;2023-10-31T11:53:08;11.50;99.90
18189;DHT22;9219;50.396;8.546;2023-10-31T11:55:41;11.50;99.90
18189;DHT22;9219;50.396;8.546;2023-10-31T11:58:16;11.60;99.90
18189;DHT22;9219;50.396;8.546;2023-10-31T12:00:45;11.70;99.90
18189;DHT22;9219;50.396;8.546;2023-10-31T12:08:25;11.80;99.90
18189;DHT22;9219;50.396;8.546;2023-10-31T12:11:04;12.20;99.90
18189;DHT22;9219;50.396;8.546;2023-10-31T12:13:33;12.20;99.90
18189;DHT22;9219;50.396;8.546;2023-10-31T12:16:04;12.20;99.90
18189;DHT22;9219;50.396;8.546;2023-10-31T12:18:31;12.30;99.90
18189;DHT22;9219;50.396;8.546;2023-10-31T12:20:58;12.20;99.90
18189;DHT22;9219;50.396;8.546;2023-10-31T12:23:27;12.20;99.90
18189;DHT22;9219;50.396;8.546;2023-10-31T12:31:02;12.20;99.90
18189;DHT22;9219;50.396;8.546;2023-10-31T12:33:29;12.20;99.90
18189;DHT22;9219;50.396;8.546;2023-10-31T12:35:58;12.40;99.90
18189;DHT22;9219;50.396;8.546;2023-10-31T12:38:28;12.30;99.90
18189;DHT22;9219;50.396;8.546;2023-10-31T12:41:03;12.60;99.90
18189;DHT22;9219;50.396;8.546;2023-10-31T12:43:35;12.60;99.90
18189;DHT22;9219;50.396;8.546;2023-10-31T12:49:17;13.40;99.90
18189;DHT22;9219;50.396;8.546;2023-10-31T12:57:10;13.30;99.90
18189;DHT22;9219;50.396;8.546;2023-10-31T12:59:38;12.70;99.90
18189;DHT22;9219;50.396;8.546;2023-10-31T13:02:08;12.60;99.90
18189;DHT22;9219;50.396;8.546;2023-10-31T13:04:37;12.70;99.90
18189;DHT22;9219;50.396;8.546;2023-10-31T13:07:05;12.60;99.90
18189;DHT22;9219;50.396;8.546;2023-10-31T13:09:40;12.50;99.90
18189;DHT22;9219;50.396;8.546;2023-10-31T13:12:13;12.70;99.90
18189;DHT22;9219;50.396;8.546;2023-10-31T13:14:41;12.70;99.90
18189;DHT22;9219;50.396;8.546;2023-10-31T13:22:17;12.80;99.90
18189;DHT22;9219;50.396;8.546;2023-10-31T13:24:47;12.40;99.90
18189;DHT22;9219;50.396;8.546;2023-10-31T13:27:16;12.50;99.90
18189;DHT22;9219;50.396;8.546;2023-10-31T13:29:46;12.70;99.90
18189;DHT22;9219;50.396;8.546;2023-10-31T13:32:17;12.70;99.90
18189;DHT22;9219;50.396;8.546;2023-10-31T13:35:00;12.40;99.90
18189;DHT22;9219;50.396;8.546;2023-10-31T13:37:34;12.70;99.90
18189;DHT22;9219;50.396;8.546;2023-10-31T13:48:12;13.00;99.90
18189;DHT22;9219;50.396;8.546;2023-10-31T13:50:50;13.20;99.90
18189;DHT22;9219;50.396;8.546;2023-10-31T13:53:52;13.10;99.90
18189;DHT22;9219;50.396;8.546;2023-10-31T13:56:19;13.20;99.90
18189;DHT22;9219;50.396;8.546;2023-10-31T13:58:46;13.20;99.90
18189;DHT22;9219;50.396;8.546;2023-10-31T14:01:15;13.30;99.90
18189;DHT22;9219;50.396;8.546;2023-10-31T14:04:38;13.30;99.90
18189;DHT22;9219;50.396;8.546;2023-10-31T14:10:39;13.70;99.90
18189;DHT22;9219;50.396;8.546;2023-10-31T14:16:36;13.70;99.90
18189;DHT22;9219;50.396;8.546;2023-10-31T14:19:09;13.80;99.90
18189;DHT22;9219;50.396;8.546;2023-10-31T14:25:23;13.90;99.90
18189;DHT22;9219;50.396;8.546;2023-10-31T14:28:24;13.70;99.90
18189;DHT22;9219;50.396;8.546;2023-10-31T14:31:07;13.80;99.90
18189;DHT22;9219;50.396;8.546;2023-10-31T14:34:20;14.00;99.90
18189;DHT22;9219;50.396;8.546;2023-10-31T14:37:00;13.90;99.90
18189;DHT22;9219;50.396;8.546;2023-10-31T14:39:32;14.00;99.90
18189;DHT22;9219;50.396;8.546;2023-10-31T14:42:19;13.90;99.90
18189;DHT22;9219;50.396;8.546;2023-10-31T14:45:13;14.00;99.90
18189;DHT22;9219;50.396;8.546;2023-10-31T14:58:20;13.60;99.90
18189;DHT22;9219;50.396;8.546;2023-10-31T15:01:08;13.60;99.90
18189;DHT22;9219;50.396;8.546;2023-10-31T15:07:23;13.70;99.90
18189;DHT22;9219;50.396;8.546;2023-10-31T15:17:36;13.60;99.90
18189;DHT22;9219;50.396;8.546;2023-10-31T15:20:07;13.60;99.90
18189;DHT22;9219;50.396;8.546;2023-10-31T15:22:40;13.60;99.90
18189;DHT22;9219;50.396;8.546;2023-10-31T15:25:30;13.60;99.90
18189;DHT22;9219;50.396;8.546;2023-10-31T15:34:12;13.70;99.90
18189;DHT22;9219;50.396;8.546;2023-10-31T15:36:39;13.80;99.90
18189;DHT22;9219;50.396;8.546;2023-10-31T15:39:07;13.60;99.90
18189;DHT22;9219;50.396;8.546;2023-10-31T15:41:37;13.40;99.90
18189;DHT22;9219;50.396;8.546;2023-10-31T15:44:05;13.20;99.90
18189;DHT22;9219;50.396;8.546;2023-10-31T15:46:45;13.40;99.90
18189;DHT22;9219;50.396;8.546;2023-10-31T15:52:31;13.20;99.90
18189;DHT22;9219;50.396;8.546;2023-10-31T15:55:01;13.30;99.90
18189;DHT22;9219;50.396;8.546;2023-10-31T15:57:29;13.20;99.90
18189;DHT22;9219;50.396;8.546;2023-10-31T15:59:58;13.00;99.90
18189;DHT22;9219;50.396;8.546;2023-10-31T16:02:31;12.90;99.90
18189;DHT22;9219;50.396;8.546;2023-10-31T16:05:11;13.00;99.90
18189;DHT22;9219;50.396;8.546;2023-10-31T16:07:40;13.00;99.90
18189;DHT22;9219;50.396;8.546;2023-10-31T16:10:09;12.80;99.90
18189;DHT22;9219;50.396;8.546;2023-10-31T16:17:44;13.00;99.90
18189;DHT22;9219;50.396;8.546;2023-10-31T16:20:11;12.90;99.90
18189;DHT22;9219;50.396;8.546;2023-10-31T16:22:39;12.90;99.90
18189;DHT22;9219;50.396;8.546;2023-10-31T16:25:06;12.80;99.90
18189;DHT22;9219;50.396;8.546;2023-10-31T16:27:35;12.80;99.90
18189;DHT22;9219;50.396;8.546;2023-10-31T16:30:02;12.70;99.90
18189;DHT22;9219;50.396;8.546;2023-10-31T16:32:33;12.60;99.90
18189;DHT22;9219;50.396;8.546;2023-10-31T16:35:04;12.60;99.90
18189;DHT22;9219;50.396;8.546;2023-10-31T16:42:39;12.50;99.90
18189;DHT22;9219;50.396;8.546;2023-10-31T16:45:08;12.30;99.90
18189;DHT22;9219;50.396;8.546;2023-10-31T16:47:36;12.30;99.90
18189;DHT22;9219;50.396;8.546;2023-10-31T16:50:04;12.30;99.90
18189;DHT22;9219;50.396;8.546;2023-10-31T16:52:33;12.30;99.90
18189;DHT22;9219;50.396;8.546;2023-10-31T16:55:02;12.40;99.90
18189;DHT22;9219;50.396;8.546;2023-10-31T16:57:29;12.40;99.90
18189;DHT22;9219;50.396;8.546;2023-10-31T17:05:27;12.30;99.90
18189;DHT22;9219;50.396;8.546;2023-10-31T17:07:59;12.30;99.90
18189;DHT22;9219;50.396;8.546;2023-10-31T17:10:33;12.30;99.90
18189;DHT22;9219;50.396;8.546;2023-10-31T17:13:08;12.30;99.90
18189;DHT22;9219;50.396;8.546;2023-10-31T17:15:36;12.40;99.90
18189;DHT22;9219;50.396;8.546;2023-10-31T17:18:07;12.50;99.90
18189;DHT22;9219;50.396;8.546;2023-10-31T17:20:38;12.50;99.90
18189;DHT22;9219;50.396;8.546;2023-10-31T17:23:18;12.70;99.90
18189;DHT22;9219;50.396;8.546;2023-10-31T17:25:50;12.50;99.90
18189;DHT22;9219;50.396;8.546;2023-10-31T17:33:46;12.50;99.90
18189;DHT22;9219;50.396;8.546;2023-10-31T17:36:16;12.40;99.90
18189;DHT22;9219;50.396;8.546;2023-10-31T17:38:43;12.50;99.90
18189;DHT22;9219;50.396;8.546;2023-10-31T17:41:12;12.50;99.90
18189;DHT22;9219;50.396;8.546;2023-10-31T17:43:40;12.40;99.90
18189;DHT22;9219;50.396;8.546;2023-10-31T17:46:08;12.50;99.90
18189;DHT22;9219;50.396;8.546;2023-10-31T17:48:35;12.50;99.90
18189;DHT22;9219;50.396;8.546;2023-10-31T17:56:12;12.60;99.90
18189;DHT22;9219;50.396;8.546;2023-10-31T17:58:42;12.60;99.90
18189;DHT22;9219;50.396;8.546;2023-10-31T18:01:13;12.70;99.90
18189;DHT22;9219;50.396;8.546;2023-10-31T18:03:40;12.70;99.90
18189;DHT22;9219;50.396;8.546;2023-10-31T18:06:08;12.70;99.90
18189;DHT22;9219;50.396;8.546;2023-10-31T18:08:35;12.80;99.90
18189;DHT22;9219;50.396;8.546;2023-10-31T18:11:06;12.60;99.90
18189;DHT22;9219;50.396;8.546;2023-10-31T18:22:56;12.60;99.90
18189;DHT22;9219;50.396;8.546;2023-10-31T18:25:28;12.50;99.90
18189;DHT22;9219;50.396;8.546;2023-10-31T18:27:58;12.60;99.90
18189;DHT22;9219;50.396;8.546;2023-10-31T18:30:44;12.60;99.90
18189;DHT22;9219;50.396;8.546;2023-10-31T18:34:51;12.60;99.90
18189;DHT22;9219;50.396;8.546;2023-10-31T18:36:42;12.50;99.90
18189;DHT22;9219;50.396;8.546;2023-10-31T18:39:15;12.40;99.90
18189;DHT22;9219;50.396;8.546;2023-10-31T18:41:45;12.60;99.90
18189;DHT22;9219;50.396;8.546;2023-10-31T18:49:50;12.60;99.90
18189;DHT22;9219;50.396;8.546;2023-10-31T18:52:18;12.50;99.90
18189;DHT22;9219;50.396;8.546;2023-10-31T18:54:48;12.40;99.90
18189;DHT22;9219;50.396;8.546;2023-10-31T18:57:16;12.40;99.90
18189;DHT22;9219;50.396;8.546;2023-10-31T18:59:58;12.40;99.90
18189;DHT22;9219;50.396;8.546;2023-10-31T19:02:40;12.30;99.90
18189;DHT22;9219;50.396;8.546;2023-10-31T19:05:27;12.30;99.90
18189;DHT22;9219;50.396;8.546;2023-10-31T19:08:06;12.20;99.90
18189;DHT22;9219;50.396;8.546;2023-10-31T19:10:34;12.30;99.90
18189;DHT22;9219;50.396;8.546;2023-10-31T19:18:13;12.40;99.90
18189;DHT22;9219;50.396;8.546;2023-10-31T19:20:48;12.50;99.90
18189;DHT22;9219;50.396;8.546;2023-10-31T19:23:45;12.40;99.90
18189;DHT22;9219;50.396;8.546;2023-10-31T19:26:43;12.40;99.90
18189;DHT22;9219;50.396;8.546;2023-10-31T19:29:19;12.30;99.90
18189;DHT22;9219;50.396;8.546;2023-10-31T19:31:47;12.30;99.90
18189;DHT22;9219;50.396;8.546;2023-10-31T19:34:38;12.50;99.90
18189;DHT22;9219;50.396;8.546;2023-10-31T19:37:15;12.30;99.90
18189;DHT22;9219;50.396;8.546;2023-10-31T19:43:14;12.30;99.90
18189;DHT22;9219;50.396;8.546;2023-10-31T19:46:01;12.10;99.90
18189;DHT22;9219;50.396;8.546;2023-10-31T19:48:40;12.10;99.90
18189;DHT22;9219;50.396;8.546;2023-10-31T19:51:09;12.20;99.90
18189;DHT22;9219;50.396;8.546;2023-10-31T19:53:43;12.50;99.90
18189;DHT22;9219;50.396;8.546;2023-10-31T19:56:20;12.50;99.90
18189;DHT22;9219;50.396;8.546;2023-10-31T19:58:50;12.50;99.90
18189;DHT22;9219;50.396;8.546;2023-10-31T20:01:31;12.50;99.90
18189;DHT22;9219;50.396;8.546;2023-10-31T20:04:02;12.30;99.90
18189;DHT22;9219;50.396;8.546;2023-10-31T20:06:40;12.10;99.90
18189;DHT22;9219;50.396;8.546;2023-10-31T20:14:17;12.00;99.90
18189;DHT22;9219;50.396;8.546;2023-10-31T20:16:45;12.20;99.90
18189;DHT22;9219;50.396;8.546;2023-10-31T20:19:19;12.10;99.90
18189;DHT22;9219;50.396;8.546;2023-10-31T20:21:55;12.20;99.90